createdAt,value
2022-07-25T00:02:04.981Z,83.10
2022-07-25T00:04:36.605Z,84.70
2022-07-25T00:07:04.561Z,101.80
2022-07-25T00:09:32.327Z,87.63
2022-07-25T00:12:00.276Z,86.70
2022-07-25T00:14:28.075Z,87.90
2022-07-25T00:16:55.805Z,85.40
2022-07-25T00:19:23.691Z,88.53
2022-07-25T00:21:52.816Z,86.73
2022-07-25T00:24:20.706Z,85.97
2022-07-25T00:26:48.467Z,86.67
2022-07-25T00:29:16.260Z,85.80
2022-07-25T00:31:44.072Z,87.47
2022-07-25T00:34:11.916Z,84.40
2022-07-25T00:36:39.905Z,91.40
2022-07-25T00:39:08.971Z,87.90
2022-07-25T00:41:36.755Z,87.60
2022-07-25T00:44:04.876Z,85.90
2022-07-25T00:46:32.873Z,83.80
2022-07-25T00:49:00.681Z,85.20
2022-07-25T00:51:28.655Z,86.93
2022-07-25T00:53:58.038Z,88.00
2022-07-25T00:56:27.597Z,89.23
2022-07-25T00:58:55.910Z,101.73
2022-07-25T01:01:24.351Z,96.00
2022-07-25T01:03:52.440Z,96.00
2022-07-25T01:06:21.600Z,94.27
2022-07-25T01:08:52.713Z,93.00
2022-07-25T01:11:20.686Z,95.50
2022-07-25T01:13:49.864Z,94.50
2022-07-25T01:16:18.154Z,97.03
2022-07-25T01:18:46.287Z,95.43
2022-07-25T01:21:15.519Z,92.63
2022-07-25T01:23:43.464Z,93.97
2022-07-25T01:26:11.235Z,93.70
2022-07-25T01:28:39.118Z,92.87
2022-07-25T01:31:07.602Z,93.20
2022-07-25T01:33:35.438Z,93.90
2022-07-25T01:36:03.294Z,93.87
2022-07-25T01:38:32.395Z,92.27
2022-07-25T01:41:00.147Z,93.87
2022-07-25T01:43:27.880Z,92.93
2022-07-25T01:45:55.850Z,92.70
2022-07-25T01:48:23.736Z,101.67
2022-07-25T01:50:51.473Z,202.73
2022-07-25T01:53:19.965Z,108.67
2022-07-25T01:55:49.411Z,103.80
2022-07-25T01:58:17.140Z,103.47
2022-07-25T02:00:45.463Z,101.67
2022-07-25T02:03:31.137Z,101.07
2022-07-25T02:05:59.404Z,99.70
2022-07-25T02:08:27.386Z,98.67
2022-07-25T02:10:58.412Z,102.90
2022-07-25T02:13:27.049Z,99.40
2022-07-25T02:15:54.993Z,99.83
2022-07-25T02:18:22.913Z,100.70
2022-07-25T02:20:50.662Z,101.63
2022-07-25T02:23:18.420Z,99.27
2022-07-25T02:25:46.171Z,102.07
2022-07-25T02:28:15.363Z,103.83
2022-07-25T02:30:43.185Z,102.63
2022-07-25T02:33:11.007Z,101.23
2022-07-25T02:35:38.918Z,102.80
2022-07-25T02:38:06.679Z,153.07
2022-07-25T02:40:34.568Z,105.43
2022-07-25T02:43:02.392Z,105.47
2022-07-25T02:45:31.474Z,104.40
2022-07-25T02:48:02.073Z,108.57
2022-07-25T02:50:30.011Z,104.40
2022-07-25T02:52:58.028Z,105.73
2022-07-25T02:55:26.020Z,104.17
2022-07-25T02:57:53.939Z,102.87
2022-07-25T03:00:21.728Z,106.77
2022-07-25T03:02:51.300Z,107.37
2022-07-25T03:05:19.186Z,105.13
2022-07-25T03:07:46.983Z,104.00
2022-07-25T03:10:15.863Z,106.20
2022-07-25T03:12:45.047Z,105.37
2022-07-25T03:15:14.062Z,102.70
2022-07-25T03:17:42.057Z,103.97
2022-07-25T03:20:11.814Z,104.17
2022-07-25T03:22:40.241Z,107.60
2022-07-25T03:25:15.873Z,266.95
2022-07-25T03:27:49.639Z,114.57
2022-07-25T03:30:17.498Z,104.60
2022-07-25T03:32:45.254Z,104.37
2022-07-25T03:35:15.401Z,102.97
2022-07-25T03:37:43.578Z,104.50
2022-07-25T03:40:12.597Z,114.90
2022-07-25T03:42:40.371Z,104.13
2022-07-25T03:45:09.328Z,105.37
2022-07-25T03:47:37.232Z,112.37
2022-07-25T03:50:05.716Z,106.07
2022-07-25T03:52:34.832Z,110.07
2022-07-25T03:55:02.564Z,103.13
2022-07-25T03:57:30.302Z,106.87
2022-07-25T03:59:58.054Z,110.97
2022-07-25T04:02:25.883Z,113.93
2022-07-25T04:04:53.725Z,110.70
2022-07-25T04:07:21.476Z,114.87
2022-07-25T04:09:50.591Z,123.65
2022-07-25T04:12:18.408Z,127.50
2022-07-25T04:14:46.188Z,126.53
2022-07-25T04:17:14.013Z,118.77
2022-07-25T04:19:42.204Z,120.17
2022-07-25T04:22:10.311Z,124.10
2022-07-25T04:24:38.496Z,121.20
2022-07-25T04:27:07.641Z,112.63
2022-07-25T04:29:35.432Z,126.40
2022-07-25T04:32:03.290Z,138.17
2022-07-25T04:34:31.083Z,125.07
2022-07-25T04:36:58.849Z,130.90
2022-07-25T04:39:26.582Z,132.73
2022-07-25T04:41:54.340Z,147.40
2022-07-25T04:44:23.493Z,148.43
2022-07-25T04:46:52.501Z,148.13
2022-07-25T04:49:20.861Z,148.67
2022-07-25T04:51:48.652Z,144.63
2022-07-25T04:54:16.387Z,155.60
2022-07-25T04:56:44.131Z,172.60
2022-07-25T04:59:11.880Z,162.87
2022-07-25T05:01:41.054Z,147.00
2022-07-25T05:04:09.017Z,137.77
2022-07-25T05:06:37.118Z,134.80
2022-07-25T05:09:05.039Z,134.83
2022-07-25T05:11:32.800Z,145.03
2022-07-25T05:14:00.539Z,113.07
2022-07-25T05:16:28.376Z,110.17
2022-07-25T05:18:57.568Z,116.80
2022-07-25T05:21:25.384Z,109.70
2022-07-25T05:23:53.135Z,118.93
2022-07-25T05:26:20.921Z,116.33
2022-07-25T05:28:48.754Z,141.67
2022-07-25T05:31:16.614Z,150.80
2022-07-25T05:33:44.464Z,142.77
2022-07-25T05:36:13.594Z,111.80
2022-07-25T05:38:41.780Z,110.73
2022-07-25T05:41:09.554Z,99.07
2022-07-25T05:43:37.331Z,99.10
2022-07-25T05:46:06.504Z,98.00
2022-07-25T05:48:34.393Z,109.40
2022-07-25T05:51:02.773Z,92.57
2022-07-25T05:53:32.568Z,96.43
2022-07-25T05:56:01.110Z,91.20
2022-07-25T05:58:30.063Z,101.70
2022-07-25T06:00:58.269Z,101.17
2022-07-25T06:03:26.591Z,96.47
2022-07-25T06:05:56.595Z,96.77
2022-07-25T06:08:24.371Z,92.90
2022-07-25T06:10:54.132Z,93.40
2022-07-25T06:13:22.883Z,86.90
2022-07-25T06:15:51.744Z,97.40
2022-07-25T06:18:19.733Z,92.70
2022-07-25T06:20:47.583Z,84.10
2022-07-25T06:23:15.529Z,83.23
2022-07-25T06:25:43.507Z,83.90
2022-07-25T06:28:19.619Z,83.97
2022-07-25T06:30:48.112Z,86.90
2022-07-25T06:33:15.899Z,87.50
2022-07-25T06:35:43.918Z,86.67
2022-07-25T06:38:11.785Z,80.20
2022-07-25T06:40:39.584Z,76.80
2022-07-25T06:43:07.824Z,68.70
2022-07-25T06:45:36.966Z,65.37
2022-07-25T06:48:05.172Z,63.80
2022-07-25T06:50:32.927Z,63.30
2022-07-25T06:53:00.744Z,62.13
2022-07-25T06:55:28.514Z,64.37
2022-07-25T06:57:56.273Z,66.30
2022-07-25T07:00:24.170Z,63.27
2022-07-25T07:02:56.143Z,62.57
2022-07-25T07:05:24.776Z,61.60
2022-07-25T07:07:52.728Z,60.47
2022-07-25T07:10:21.921Z,60.40
2022-07-25T07:12:50.233Z,59.03
2022-07-25T07:15:18.434Z,61.07
2022-07-25T07:17:46.314Z,60.37
2022-07-25T07:20:15.415Z,60.33
2022-07-25T07:22:47.848Z,60.73
2022-07-25T07:25:16.318Z,59.23
2022-07-25T07:27:45.758Z,59.27
2022-07-25T07:30:14.735Z,60.20
2022-07-25T07:32:42.781Z,59.07
2022-07-25T07:35:11.230Z,58.13
2022-07-25T07:37:43.632Z,57.37
2022-07-25T07:40:17.016Z,59.90
2022-07-25T07:42:48.477Z,61.33
2022-07-25T07:45:19.048Z,59.47
2022-07-25T07:47:48.092Z,59.40
2022-07-25T07:50:17.029Z,59.40
2022-07-25T07:52:46.849Z,60.13
2022-07-25T07:55:32.647Z,59.30
2022-07-25T07:58:01.084Z,59.87
2022-07-25T08:00:30.930Z,57.17
2022-07-25T08:03:00.326Z,58.40
2022-07-25T08:05:30.388Z,65.38
2022-07-25T08:08:00.092Z,58.80
2022-07-25T08:10:29.745Z,60.17
2022-07-25T08:12:57.829Z,58.50
2022-07-25T08:15:25.951Z,59.77
2022-07-25T08:17:54.031Z,59.40
2022-07-25T08:20:39.507Z,58.70
2022-07-25T08:23:10.988Z,58.40
2022-07-25T08:25:39.141Z,58.33
2022-07-25T08:28:07.724Z,57.60
2022-07-25T08:30:36.543Z,60.03
2022-07-25T08:33:06.959Z,60.20
2022-07-25T08:35:36.071Z,60.27
2022-07-25T08:38:05.619Z,62.90
2022-07-25T08:40:36.117Z,60.27
2022-07-25T08:43:04.599Z,59.87
2022-07-25T08:45:34.430Z,58.50
2022-07-25T08:48:04.304Z,62.77
2022-07-25T08:50:32.082Z,60.93
2022-07-25T08:53:34.916Z,58.50
2022-07-25T08:55:49.250Z,58.47
2022-07-25T08:58:18.427Z,59.57
2022-07-25T09:00:46.828Z,62.00
2022-07-25T09:03:14.709Z,59.53
2022-07-25T09:05:44.058Z,59.50
2022-07-25T09:08:13.482Z,57.83
2022-07-25T09:10:46.225Z,60.63
2022-07-25T09:13:16.487Z,59.97
2022-07-25T09:15:49.518Z,60.07
2022-07-25T09:18:19.451Z,61.40
2022-07-25T09:20:49.268Z,64.83
2022-07-25T09:23:29.602Z,60.47
2022-07-25T09:26:03.480Z,61.00
2022-07-25T09:28:33.415Z,62.27
2022-07-25T09:31:02.510Z,64.07
2022-07-25T09:33:30.573Z,62.53
2022-07-25T09:35:58.447Z,63.77
2022-07-25T09:38:26.685Z,64.97
2022-07-25T09:40:57.283Z,64.13
2022-07-25T09:43:25.170Z,67.80
2022-07-25T09:45:54.375Z,64.23
2022-07-25T09:48:22.129Z,64.37
2022-07-25T09:50:51.341Z,64.87
2022-07-25T09:53:19.881Z,63.77
2022-07-25T09:55:47.808Z,65.70
2022-07-25T09:58:15.582Z,65.33
2022-07-25T10:00:44.170Z,65.27
2022-07-25T10:03:30.219Z,66.73
2022-07-25T10:06:11.816Z,66.00
2022-07-25T10:08:40.779Z,65.40
2022-07-25T10:11:20.564Z,69.60
2022-07-25T10:13:48.476Z,66.80
2022-07-25T10:16:18.421Z,64.20
2022-07-25T10:18:52.841Z,65.00
2022-07-25T10:21:27.430Z,64.50
2022-07-25T10:24:05.599Z,64.47
2022-07-25T10:26:34.988Z,63.57
2022-07-25T10:29:08.859Z,64.13
2022-07-25T10:31:38.464Z,66.70
2022-07-25T10:34:11.254Z,66.07
2022-07-25T10:36:45.156Z,66.07
2022-07-25T10:39:15.519Z,68.00
2022-07-25T10:41:45.836Z,65.30
2022-07-25T10:44:15.562Z,68.03
2022-07-25T10:46:44.961Z,68.57
2022-07-25T10:49:29.163Z,67.27
2022-07-25T10:52:01.258Z,66.50
2022-07-25T10:54:34.576Z,66.17
2022-07-25T10:57:02.863Z,64.97
2022-07-25T10:59:33.770Z,68.40
2022-07-25T11:02:02.335Z,70.17
2022-07-25T11:04:32.061Z,65.67
2022-07-25T11:07:09.583Z,65.47
2022-07-25T11:09:39.222Z,67.10
2022-07-25T11:12:07.376Z,65.53
2022-07-25T11:14:37.554Z,72.05
2022-07-25T11:17:14.454Z,68.30
2022-07-25T11:19:44.923Z,65.57
2022-07-25T11:22:13.385Z,67.87
2022-07-25T11:24:43.248Z,64.90
2022-07-25T11:27:12.959Z,66.73
2022-07-25T11:29:41.521Z,63.00
2022-07-25T11:32:11.667Z,64.67
2022-07-25T11:34:43.073Z,66.20
2022-07-25T11:37:14.568Z,62.20
2022-07-25T11:39:44.556Z,63.80
2022-07-25T11:42:16.144Z,62.90
2022-07-25T11:44:48.104Z,61.97
2022-07-25T11:47:28.049Z,62.60
2022-07-25T11:49:57.368Z,62.67
2022-07-25T11:52:30.786Z,64.77
2022-07-25T11:55:00.899Z,61.23
2022-07-25T11:57:30.674Z,59.60
2022-07-25T12:00:00.134Z,60.57
2022-07-25T12:02:31.606Z,60.97
2022-07-25T12:05:00.971Z,64.77
2022-07-25T12:07:41.638Z,62.07
2022-07-25T12:10:11.984Z,63.60
2022-07-25T12:12:44.689Z,63.20
2022-07-25T12:15:13.875Z,63.23
2022-07-25T12:17:43.169Z,65.63
2022-07-25T12:20:18.127Z,63.00
2022-07-25T12:22:47.883Z,67.10
2022-07-25T12:25:15.894Z,61.93
2022-07-25T12:27:44.030Z,63.30
2022-07-25T12:30:13.500Z,60.87
2022-07-25T12:32:41.537Z,61.67
2022-07-25T12:35:11.056Z,61.07
2022-07-25T12:37:39.232Z,58.97
2022-07-25T12:40:09.704Z,59.07
2022-07-25T12:42:37.808Z,60.87
2022-07-25T12:45:07.703Z,55.80
2022-07-25T12:47:36.454Z,54.97
2022-07-25T12:50:05.481Z,53.77
2022-07-25T12:52:33.416Z,52.70
2022-07-25T12:55:01.213Z,53.27
2022-07-25T12:57:30.323Z,52.50
2022-07-25T12:59:58.163Z,52.50
2022-07-25T13:02:26.106Z,56.10
2022-07-25T13:04:53.886Z,53.50
2022-07-25T13:07:21.665Z,52.60
2022-07-25T13:09:49.426Z,50.80
2022-07-25T13:12:17.296Z,53.60
2022-07-25T13:14:46.366Z,52.90
2022-07-25T13:17:14.132Z,51.70
2022-07-25T13:19:41.980Z,55.20
2022-07-25T13:22:09.876Z,52.60
2022-07-25T13:24:39.226Z,53.10
2022-07-25T13:27:07.526Z,54.60
2022-07-25T13:29:35.460Z,53.03
2022-07-25T13:32:05.497Z,54.07
2022-07-25T13:34:34.080Z,54.07
2022-07-25T13:37:01.995Z,56.07
2022-07-25T13:39:29.820Z,57.63
2022-07-25T13:41:57.630Z,55.10
2022-07-25T13:44:25.380Z,55.13
2022-07-25T13:46:53.151Z,53.97
2022-07-25T13:49:22.358Z,56.13
2022-07-25T13:51:50.156Z,56.40
2022-07-25T13:54:17.973Z,60.40
2022-07-25T13:56:45.769Z,58.27
2022-07-25T13:59:20.540Z,57.07
2022-07-25T14:01:48.988Z,56.67
2022-07-25T14:04:16.866Z,62.13
2022-07-25T14:06:51.643Z,58.10
2022-07-25T14:09:20.274Z,61.83
2022-07-25T14:11:48.945Z,59.50
2022-07-25T14:14:16.860Z,89.63
2022-07-25T14:16:44.844Z,69.40
2022-07-25T14:19:12.720Z,63.57
2022-07-25T14:21:40.580Z,62.80
2022-07-25T14:24:10.233Z,60.90
2022-07-25T14:26:38.172Z,62.77
2022-07-25T14:29:11.046Z,58.30
2022-07-25T14:31:40.654Z,58.87
2022-07-25T14:34:08.827Z,60.97
2022-07-25T14:36:37.223Z,64.63
2022-07-25T14:39:06.042Z,63.20
2022-07-25T14:41:35.341Z,64.80
2022-07-25T14:44:03.139Z,63.90
2022-07-25T14:46:31.152Z,65.83
2022-07-25T14:48:59.430Z,65.17
2022-07-25T14:51:28.531Z,66.27
2022-07-25T14:53:56.323Z,68.17
2022-07-25T14:56:24.104Z,66.60
2022-07-25T14:58:53.258Z,65.30
2022-07-25T15:01:24.282Z,70.30
2022-07-25T15:03:52.391Z,69.27
2022-07-25T15:06:20.236Z,68.83
2022-07-25T15:08:48.043Z,67.90
2022-07-25T15:11:16.848Z,70.87
2022-07-25T15:13:44.733Z,72.57
2022-07-25T15:16:14.566Z,70.77
2022-07-25T15:19:13.407Z,71.27
2022-07-25T15:21:32.037Z,70.53
2022-07-25T15:23:59.951Z,72.10
2022-07-25T15:26:27.805Z,71.80
2022-07-25T15:28:55.735Z,75.43
2022-07-25T15:31:26.262Z,73.50
2022-07-25T15:33:54.377Z,71.50
2022-07-25T15:36:27.134Z,71.60
2022-07-25T15:38:57.026Z,69.37
2022-07-25T15:41:24.785Z,70.17
2022-07-25T15:43:52.581Z,70.37
2022-07-25T15:46:20.368Z,70.40
2022-07-25T15:48:49.827Z,71.00
2022-07-25T15:51:17.722Z,74.90
2022-07-25T15:53:45.696Z,72.30
2022-07-25T15:56:15.239Z,68.90
2022-07-25T15:58:43.165Z,74.60
2022-07-25T16:01:11.016Z,71.87
2022-07-25T16:03:38.938Z,68.17
2022-07-25T16:06:08.572Z,70.53
2022-07-25T16:08:36.449Z,67.20
2022-07-25T16:11:05.068Z,70.00
2022-07-25T16:13:32.840Z,68.30
2022-07-25T16:16:00.604Z,66.37
2022-07-25T16:18:28.415Z,66.80
2022-07-25T16:20:56.184Z,70.40
2022-07-25T16:23:27.991Z,67.87
2022-07-25T16:25:55.753Z,67.70
2022-07-25T16:28:23.509Z,68.40
2022-07-25T16:30:51.278Z,67.27
2022-07-25T16:33:19.033Z,69.70
2022-07-25T16:35:46.825Z,68.97
2022-07-25T16:38:15.754Z,66.70
2022-07-25T16:40:44.835Z,67.90
2022-07-25T16:43:12.685Z,67.57
2022-07-25T16:45:42.101Z,70.10
2022-07-25T16:48:09.968Z,68.23
2022-07-25T16:50:37.752Z,69.90
2022-07-25T16:53:05.546Z,67.47
2022-07-25T16:55:33.298Z,67.67
2022-07-25T16:58:02.521Z,66.17
2022-07-25T17:00:30.360Z,65.93
2022-07-25T17:02:58.441Z,69.23
2022-07-25T17:05:26.218Z,68.43
2022-07-25T17:07:59.449Z,69.40
2022-07-25T17:10:27.773Z,67.03
2022-07-25T17:12:55.734Z,69.07
2022-07-25T17:15:24.871Z,66.50
2022-07-25T17:17:52.669Z,73.53
2022-07-25T17:20:20.483Z,69.40
2022-07-25T17:22:48.241Z,67.60
2022-07-25T17:25:16.063Z,67.20
2022-07-25T17:27:43.826Z,68.17
2022-07-25T17:30:12.532Z,68.20
2022-07-25T17:32:41.811Z,68.60
2022-07-25T17:35:10.521Z,67.67
2022-07-25T17:37:38.323Z,70.67
2022-07-25T17:40:06.940Z,66.63
2022-07-25T17:42:34.732Z,67.17
2022-07-25T17:45:05.732Z,69.73
2022-07-25T17:47:33.575Z,75.50
2022-07-25T17:50:02.786Z,77.03
2022-07-25T17:52:30.580Z,75.73
2022-07-25T17:54:58.439Z,77.97
2022-07-25T17:57:27.019Z,78.07
2022-07-25T17:59:55.153Z,77.40
2022-07-25T18:02:23.021Z,82.60
2022-07-25T18:04:50.926Z,79.97
2022-07-25T18:07:20.610Z,83.07
2022-07-25T18:09:48.360Z,85.53
2022-07-25T18:12:16.183Z,87.17
2022-07-25T18:14:44.435Z,94.97
2022-07-25T18:17:12.188Z,93.97
2022-07-25T18:19:40.073Z,93.13
2022-07-25T18:22:07.904Z,99.80
2022-07-25T18:24:38.314Z,105.27
2022-07-25T18:27:06.916Z,188.27
2022-07-25T18:29:37.192Z,385.47
2022-07-25T18:32:05.510Z,433.53
2022-07-25T18:34:33.417Z,315.70
2022-07-25T18:37:04.076Z,387.17
2022-07-25T18:39:32.097Z,1026.57
2022-07-25T18:42:01.248Z,744.10
2022-07-25T18:44:29.154Z,124.73
2022-07-25T18:46:57.019Z,239.70
2022-07-25T18:49:27.069Z,288.53
2022-07-25T18:51:54.807Z,180.83
2022-07-25T18:54:22.989Z,252.13
2022-07-25T18:56:50.847Z,294.17
2022-07-25T18:59:20.230Z,314.43
2022-07-25T19:01:48.026Z,379.53
2022-07-25T19:04:15.820Z,323.27
2022-07-25T19:06:43.758Z,251.00
2022-07-25T19:09:11.570Z,295.97
2022-07-25T19:11:42.340Z,245.03
2022-07-25T19:14:10.782Z,264.53
2022-07-25T19:16:40.103Z,336.20
2022-07-25T19:19:09.455Z,286.97
2022-07-25T19:21:37.739Z,405.87
2022-07-25T19:24:06.610Z,345.40
2022-07-25T19:26:34.626Z,297.63
2022-07-25T19:29:02.662Z,317.30
2022-07-25T19:31:30.556Z,324.23
2022-07-25T19:33:59.698Z,360.63
2022-07-25T19:36:27.514Z,277.33
2022-07-25T19:38:55.256Z,269.33
2022-07-25T19:41:23.135Z,289.00
2022-07-25T19:43:52.475Z,279.20
2022-07-25T19:46:20.378Z,270.63
2022-07-25T19:48:48.521Z,267.43
2022-07-25T19:51:17.689Z,354.70
2022-07-25T19:53:45.532Z,354.67
2022-07-25T19:56:13.252Z,366.20
2022-07-25T19:58:43.273Z,329.70
2022-07-25T20:01:11.609Z,386.47
2022-07-25T20:03:39.500Z,355.20
2022-07-25T20:06:08.435Z,295.57
2022-07-25T20:08:39.259Z,279.73
2022-07-25T20:11:07.540Z,237.77
2022-07-25T20:13:35.705Z,226.17
2022-07-25T20:16:03.861Z,209.10
2022-07-25T20:18:32.518Z,179.73
2022-07-25T20:21:00.505Z,168.33
2022-07-25T20:23:28.583Z,144.70
2022-07-25T20:25:58.201Z,147.43
2022-07-25T20:28:25.957Z,192.27
2022-07-25T20:30:55.731Z,200.70
2022-07-25T20:33:26.919Z,196.00
2022-07-25T20:35:55.530Z,218.23
2022-07-25T20:38:25.298Z,266.37
2022-07-25T20:40:55.024Z,266.97
2022-07-25T20:43:24.312Z,294.13
2022-07-25T20:45:52.215Z,222.80
2022-07-25T20:48:20.045Z,244.23
2022-07-25T20:50:47.853Z,222.73
2022-07-25T20:53:15.672Z,219.53
2022-07-25T20:55:43.526Z,210.30
2022-07-25T20:58:11.379Z,200.90
2022-07-25T21:00:40.546Z,258.97
2022-07-25T21:03:08.676Z,274.23
2022-07-25T21:05:37.599Z,352.13
2022-07-25T21:08:05.670Z,337.37
2022-07-25T21:10:33.735Z,380.08
2022-07-25T21:13:01.867Z,362.17
2022-07-25T21:15:30.851Z,142.87
2022-07-25T21:18:00.614Z,170.37
2022-07-25T21:20:28.658Z,116.37
2022-07-25T21:22:56.520Z,138.60
2022-07-25T21:25:24.430Z,154.60
2022-07-25T21:27:52.823Z,126.20
2022-07-25T21:30:20.892Z,182.00
2022-07-25T21:32:48.648Z,107.23
2022-07-25T21:35:18.115Z,105.07
2022-07-25T21:37:45.913Z,108.60
2022-07-25T21:40:14.130Z,105.10
2022-07-25T21:42:42.510Z,137.90
2022-07-25T21:45:11.192Z,105.70
2022-07-25T21:47:39.058Z,106.33
2022-07-25T21:50:25.303Z,107.00
2022-07-25T21:52:55.239Z,129.70
2022-07-25T21:55:23.144Z,104.17
2022-07-25T21:57:52.159Z,124.95
2022-07-25T22:00:20.682Z,185.40
2022-07-25T22:02:48.729Z,166.63
2022-07-25T22:05:18.767Z,169.27
2022-07-25T22:07:47.972Z,142.70
2022-07-25T22:10:18.541Z,147.63
2022-07-25T22:12:47.081Z,135.90
2022-07-25T22:15:15.152Z,108.47
2022-07-25T22:17:49.166Z,140.07
2022-07-25T22:20:18.463Z,135.60
2022-07-25T22:22:47.297Z,115.07
2022-07-25T22:25:15.397Z,109.97
2022-07-25T22:27:44.919Z,108.43
2022-07-25T22:30:18.518Z,109.00
2022-07-25T22:32:47.641Z,110.73
2022-07-25T22:35:15.468Z,105.93
2022-07-25T22:37:43.269Z,112.03
2022-07-25T22:40:12.205Z,124.97
2022-07-25T22:42:39.965Z,111.80
2022-07-25T22:45:10.299Z,178.83
2022-07-25T22:47:38.097Z,194.70
2022-07-25T22:50:07.207Z,387.58
2022-07-25T22:52:35.869Z,195.57
2022-07-25T22:55:03.684Z,237.07
2022-07-25T22:57:36.734Z,243.70
2022-07-25T23:00:07.324Z,226.00
2022-07-25T23:02:36.572Z,276.43
2022-07-25T23:05:04.770Z,266.73
2022-07-25T23:07:33.014Z,282.43
2022-07-25T23:10:01.638Z,309.23
2022-07-25T23:12:29.450Z,283.50
2022-07-25T23:14:57.209Z,297.37
2022-07-25T23:17:25.072Z,290.80
2022-07-25T23:19:56.525Z,283.13
2022-07-25T23:22:25.566Z,307.80
2022-07-25T23:24:53.333Z,311.57
2022-07-25T23:27:21.269Z,315.20
2022-07-25T23:29:49.423Z,303.23
2022-07-25T23:32:17.224Z,287.77
2022-07-25T23:34:45.043Z,277.13
2022-07-25T23:37:14.152Z,304.33
2022-07-25T23:39:41.901Z,285.83
2022-07-25T23:42:09.656Z,283.13
2022-07-25T23:44:37.989Z,202.57
2022-07-25T23:47:10.091Z,139.57
2022-07-25T23:49:38.633Z,201.27
2022-07-25T23:52:06.931Z,263.97
2022-07-25T23:54:38.121Z,253.73
2022-07-25T23:57:07.105Z,131.30
2022-07-25T23:59:35.279Z,167.83
